Time;durP1;ratioP1;P1;durP2;ratioP2;P2;SDS_P1;SDS_P2;PMS_P1;PMS_P2;Temp;Humidity;BMP_temperature;BMP_pressure;BME280_temperature;BME280_humidity;BME280_pressure;Samples;Min_cycle;Max_cycle;Signal;HPM_P1;HPM_P2
2022/07/31 00:01:45;;;;;;;6.07;5.57;;;21.90;99.90;;;;;;4989625;28;20466;-62
2022/07/31 00:04:11;;;;;;;11.03;6.47;;;21.90;99.90;;;;;;4988357;28;20420;-62
2022/07/31 00:06:37;;;;;;;9.03;6.47;;;21.90;99.90;;;;;;4989064;28;20180;-63
2022/07/31 00:09:03;;;;;;;10.40;5.93;;;22.00;99.90;;;;;;4988616;28;20213;-58
2022/07/31 00:11:29;;;;;;;6.40;5.80;;;22.00;99.90;;;;;;4989559;28;20504;-62
2022/07/31 00:13:55;;;;;;;6.00;5.50;;;22.00;99.90;;;;;;4989018;28;20585;-61
2022/07/31 00:16:20;;;;;;;7.03;5.20;;;22.00;99.90;;;;;;4987994;28;20613;-61
2022/07/31 00:18:46;;;;;;;11.77;7.03;;;22.00;99.90;;;;;;4988640;28;20276;-61
2022/07/31 00:21:12;;;;;;;7.90;5.83;;;22.10;99.90;;;;;;4987647;28;20254;-60
2022/07/31 00:23:39;;;;;;;9.07;6.33;;;22.10;99.90;;;;;;4989557;28;20173;-62
2022/07/31 00:26:06;;;;;;;12.83;6.73;;;22.00;99.90;;;;;;4985624;28;20497;-59
2022/07/31 00:28:32;;;;;;;7.30;5.90;;;22.10;99.90;;;;;;4985607;28;20859;-61
2022/07/31 00:30:58;;;;;;;6.37;5.73;;;22.00;99.90;;;;;;4988789;28;20450;-64
2022/07/31 00:33:23;;;;;;;6.10;5.50;;;22.00;99.90;;;;;;4988795;28;20492;-62
2022/07/31 00:35:49;;;;;;;7.70;6.93;;;22.00;99.90;;;;;;4988281;28;20200;-62
2022/07/31 00:38:15;;;;;;;7.07;6.33;;;21.90;99.90;;;;;;4988759;28;20204;-62
2022/07/31 00:40:48;;;;;;;5.50;5.10;;;21.90;99.90;;;;;;4989087;28;20255;-62
2022/07/31 00:43:15;;;;;;;5.93;5.50;;;21.90;99.90;;;;;;4988250;28;20177;-61
2022/07/31 00:45:41;;;;;;;10.43;6.03;;;21.90;99.90;;;;;;4989397;28;20421;-62
2022/07/31 00:48:07;;;;;;;26.03;7.07;;;21.80;99.90;;;;;;4988150;28;20549;-63
2022/07/31 00:50:33;;;;;;;10.80;5.93;;;21.80;99.90;;;;;;4988855;28;20871;-63
2022/07/31 00:52:58;;;;;;;6.60;5.73;;;21.80;99.90;;;;;;4988975;28;20502;-63
2022/07/31 00:55:25;;;;;;;5.80;5.33;;;21.70;99.90;;;;;;4989246;28;20177;-63
2022/07/31 00:57:50;;;;;;;7.30;5.40;;;21.70;99.90;;;;;;4988280;28;20649;-61
2022/07/31 01:00:16;;;;;;;7.27;5.90;;;21.70;99.90;;;;;;4987449;28;20427;-62
2022/07/31 01:02:42;;;;;;;6.00;5.50;;;21.70;99.90;;;;;;4988721;28;20847;-62
2022/07/31 01:05:08;;;;;;;9.50;6.00;;;21.60;99.90;;;;;;4988141;28;20260;-64
2022/07/31 01:07:34;;;;;;;9.10;6.10;;;21.70;99.90;;;;;;4988445;28;20684;-62
2022/07/31 01:10:05;;;;;;;8.47;6.50;;;21.60;99.90;;;;;;4988202;28;20483;-63
2022/07/31 01:12:43;;;;;;;12.17;6.00;;;21.60;99.90;;;;;;4992432;28;20189;-63
2022/07/31 01:15:10;;;;;;;8.90;7.13;;;21.70;99.90;;;;;;4990081;28;20498;-63
2022/07/31 01:17:37;;;;;;;7.47;6.63;;;21.70;99.90;;;;;;4991375;28;21126;-63
2022/07/31 01:20:04;;;;;;;10.00;5.13;;;21.60;99.90;;;;;;4991235;28;20883;-63
2022/07/31 01:22:56;;;;;;;6.53;5.90;;;21.60;99.90;;;;;;4991909;28;21002;-67
2022/07/31 01:25:22;;;;;;;6.10;5.47;;;21.50;99.90;;;;;;4992670;28;20463;-62
2022/07/31 01:28:08;;;;;;;5.70;5.20;;;21.50;99.90;;;;;;4991424;28;20471;-63
2022/07/31 01:30:45;;;;;;;6.63;5.20;;;21.50;99.90;;;;;;4987458;28;20169;-62
2022/07/31 01:33:20;;;;;;;6.33;5.70;;;21.50;99.90;;;;;;4987020;28;20775;-62
2022/07/31 01:35:54;;;;;;;5.90;5.40;;;21.40;99.90;;;;;;4991066;28;20424;-63
2022/07/31 01:38:28;;;;;;;10.83;6.50;;;21.40;99.90;;;;;;4990676;28;20436;-63
2022/07/31 01:40:58;;;;;;;5.30;4.90;;;21.40;99.90;;;;;;4989323;28;20778;-63
2022/07/31 01:43:39;;;;;;;8.17;5.77;;;21.40;99.90;;;;;;4988266;28;20410;-63
2022/07/31 01:46:10;;;;;;;6.57;5.83;;;21.30;99.90;;;;;;4990259;28;20435;-63
2022/07/31 01:48:37;;;;;;;6.23;5.73;;;21.30;99.90;;;;;;4987675;28;20436;-63
2022/07/31 01:51:04;;;;;;;6.83;6.23;;;21.20;99.90;;;;;;4990665;28;20441;-63
2022/07/31 01:53:30;;;;;;;18.63;6.40;;;21.20;99.90;;;;;;4990430;28;20891;-62
2022/07/31 01:55:57;;;;;;;6.90;5.47;;;21.20;99.90;;;;;;4991399;28;20806;-62
2022/07/31 01:58:25;;;;;;;8.63;6.07;;;21.20;99.90;;;;;;4989410;28;20455;-61
2022/07/31 02:00:57;;;;;;;5.67;5.13;;;21.20;99.90;;;;;;4989154;28;20460;-61
2022/07/31 02:03:24;;;;;;;6.33;5.73;;;21.20;99.90;;;;;;4990994;28;20412;-62
2022/07/31 02:05:51;;;;;;;10.53;5.90;;;21.30;99.90;;;;;;4991171;28;20427;-62
2022/07/31 02:08:18;;;;;;;7.23;5.70;;;21.20;99.90;;;;;;4989216;28;22268;-62
2022/07/31 02:10:45;;;;;;;11.33;6.23;;;21.20;99.90;;;;;;4988129;28;20944;-62
2022/07/31 02:13:13;;;;;;;6.77;6.10;;;21.20;99.90;;;;;;4989246;28;20444;-63
2022/07/31 02:15:41;;;;;;;5.87;5.27;;;21.10;99.90;;;;;;4984420;28;20439;-62
2022/07/31 02:18:08;;;;;;;8.20;6.13;;;21.10;99.90;;;;;;4990394;28;20423;-63
2022/07/31 02:20:36;;;;;;;12.57;6.20;;;21.20;99.90;;;;;;4988813;28;20424;-62
2022/07/31 02:23:02;;;;;;;8.00;5.60;;;21.10;99.90;;;;;;4990467;28;20523;-63
2022/07/31 02:25:29;;;;;;;10.70;6.00;;;21.00;99.90;;;;;;4987591;28;20499;-62
2022/07/31 02:27:57;;;;;;;6.40;5.90;;;21.00;99.90;;;;;;4989127;28;20177;-64
2022/07/31 02:30:26;;;;;;;14.60;6.93;;;20.90;99.90;;;;;;4987072;28;20456;-63
2022/07/31 02:32:52;;;;;;;7.90;6.03;;;20.90;99.90;;;;;;4989481;28;20428;-64
2022/07/31 02:35:19;;;;;;;10.27;5.80;;;20.90;99.90;;;;;;4991421;28;20536;-64
2022/07/31 02:37:49;;;;;;;6.23;5.63;;;21.00;99.90;;;;;;4989609;28;20543;-64
2022/07/31 02:40:16;;;;;;;6.00;5.53;;;21.00;99.90;;;;;;4984701;28;20824;-64
2022/07/31 02:42:42;;;;;;;10.93;6.00;;;20.90;99.90;;;;;;4991730;28;20538;-63
2022/07/31 02:45:09;;;;;;;6.50;5.80;;;20.80;99.90;;;;;;4991290;28;20460;-63
2022/07/31 02:47:38;;;;;;;6.47;5.60;;;20.80;99.90;;;;;;4991084;28;20424;-63
2022/07/31 02:50:05;;;;;;;11.53;6.40;;;20.80;99.90;;;;;;4988427;28;20504;-63
2022/07/31 02:52:32;;;;;;;11.10;6.47;;;20.80;99.90;;;;;;4991095;28;20420;-63
2022/07/31 02:54:58;;;;;;;9.30;6.20;;;20.90;99.90;;;;;;4991445;28;20430;-63
2022/07/31 02:57:24;;;;;;;6.63;5.93;;;20.80;99.90;;;;;;4991100;28;20482;-63
2022/07/31 02:59:50;;;;;;;12.00;6.30;;;20.80;99.90;;;;;;4991234;28;20451;-63
2022/07/31 03:02:16;;;;;;;17.83;6.90;;;20.80;99.90;;;;;;4990817;28;20201;-63
2022/07/31 03:04:41;;;;;;;15.50;7.40;;;20.80;99.90;;;;;;4991451;28;20173;-63
2022/07/31 03:07:07;;;;;;;13.10;6.57;;;20.90;99.90;;;;;;4990684;28;20280;-63
2022/07/31 03:09:33;;;;;;;9.47;5.87;;;20.80;99.90;;;;;;4991054;28;20212;-63
2022/07/31 03:11:59;;;;;;;9.10;6.00;;;20.70;99.90;;;;;;4991162;28;20181;-63
2022/07/31 03:14:25;;;;;;;12.20;6.33;;;20.60;99.90;;;;;;4991228;28;20207;-62
2022/07/31 03:16:52;;;;;;;6.10;5.30;;;20.50;99.90;;;;;;4990913;28;20184;-63
2022/07/31 03:19:22;;;;;;;8.47;5.57;;;20.50;99.90;;;;;;4990391;28;20436;-63
2022/07/31 03:21:49;;;;;;;9.60;5.80;;;20.50;99.90;;;;;;4990753;28;20447;-63
2022/07/31 03:24:16;;;;;;;9.03;5.93;;;20.50;99.90;;;;;;4990539;28;20415;-63
2022/07/31 03:26:43;;;;;;;9.10;5.47;;;20.50;99.90;;;;;;4990859;28;20431;-62
2022/07/31 03:29:08;;;;;;;22.83;8.80;;;20.50;99.90;;;;;;4990317;28;20531;-62
2022/07/31 03:31:34;;;;;;;20.37;6.30;;;20.60;99.90;;;;;;4984560;28;20514;-62
2022/07/31 03:34:00;;;;;;;29.83;7.40;;;20.60;99.90;;;;;;4988519;28;20185;-63
2022/07/31 03:36:26;;;;;;;9.70;5.60;;;20.50;99.90;;;;;;4990337;28;20184;-63
2022/07/31 03:38:52;;;;;;;11.07;6.53;;;20.60;99.90;;;;;;4990227;28;20436;-62
2022/07/31 03:41:18;;;;;;;25.63;7.57;;;20.60;99.90;;;;;;4990095;28;20644;-63
2022/07/31 03:43:45;;;;;;;7.40;6.17;;;20.60;99.90;;;;;;4990979;28;20417;-62
2022/07/31 03:46:13;;;;;;;11.30;6.57;;;20.50;99.90;;;;;;4990679;28;20172;-63
2022/07/31 03:48:40;;;;;;;13.67;6.30;;;20.40;99.90;;;;;;4990853;28;20754;-62
2022/07/31 03:51:06;;;;;;;10.17;6.13;;;20.50;99.90;;;;;;4990493;28;20427;-61
2022/07/31 03:53:32;;;;;;;11.23;7.23;;;20.60;99.90;;;;;;4986265;28;20243;-62
2022/07/31 03:56:01;;;;;;;8.30;6.00;;;20.60;99.90;;;;;;4987243;28;20499;-62
2022/07/31 03:58:27;;;;;;;29.53;8.20;;;20.60;99.90;;;;;;4973186;28;20810;-62
2022/07/31 04:00:53;;;;;;;18.63;6.77;;;20.60;99.90;;;;;;4987234;28;20952;-63
2022/07/31 04:03:19;;;;;;;18.60;7.30;;;20.60;99.90;;;;;;4990382;28;20427;-62
2022/07/31 04:05:45;;;;;;;24.37;8.13;;;20.60;99.90;;;;;;4990875;28;20248;-62
2022/07/31 04:08:10;;;;;;;27.60;7.83;;;20.50;99.90;;;;;;4990348;28;20169;-62
2022/07/31 04:10:36;;;;;;;39.97;8.97;;;20.50;99.90;;;;;;4991006;28;20169;-62
2022/07/31 04:13:03;;;;;;;19.10;6.77;;;20.40;99.90;;;;;;4990827;28;20169;-64
2022/07/31 04:15:29;;;;;;;16.67;8.67;;;20.40;99.90;;;;;;4990281;28;20416;-60
2022/07/31 04:17:55;;;;;;;17.20;6.87;;;20.50;99.90;;;;;;4991889;28;20416;-64
2022/07/31 04:20:21;;;;;;;14.43;6.23;;;20.60;99.90;;;;;;4983751;28;20704;-64
2022/07/31 04:22:47;;;;;;;14.20;6.60;;;20.70;99.90;;;;;;4985840;28;20193;-64
2022/07/31 04:25:13;;;;;;;9.83;5.27;;;20.70;99.90;;;;;;4989946;28;20192;-63
2022/07/31 04:27:39;;;;;;;14.10;6.10;;;20.70;99.90;;;;;;4994618;28;20456;-63
2022/07/31 04:30:06;;;;;;;36.43;8.17;;;20.70;99.90;;;;;;4997517;28;20447;-63
2022/07/31 04:32:34;;;;;;;24.70;7.87;;;20.70;99.90;;;;;;5001636;28;20185;-64
2022/07/31 04:35:00;;;;;;;27.30;7.50;;;20.60;99.90;;;;;;5002201;28;20424;-63
2022/07/31 04:37:26;;;;;;;54.87;10.43;;;20.50;99.90;;;;;;5001418;28;20443;-63
2022/07/31 04:39:51;;;;;;;14.00;5.77;;;20.60;99.90;;;;;;5003970;28;20201;-62
2022/07/31 04:42:17;;;;;;;20.20;7.30;;;20.60;99.90;;;;;;4998215;28;20284;-64
2022/07/31 04:44:43;;;;;;;20.47;6.03;;;20.60;99.90;;;;;;4989872;28;20614;-64
2022/07/31 04:47:09;;;;;;;23.83;7.30;;;20.70;99.90;;;;;;4992768;28;20177;-62
2022/07/31 04:49:35;;;;;;;26.80;7.20;;;20.60;99.90;;;;;;4991803;28;21006;-62
2022/07/31 04:52:01;;;;;;;50.03;9.87;;;20.70;99.90;;;;;;4991939;28;20282;-65
2022/07/31 04:54:28;;;;;;;29.03;9.17;;;20.70;99.90;;;;;;4991830;28;20177;-65
2022/07/31 04:56:54;;;;;;;29.37;7.97;;;20.60;99.90;;;;;;4992723;28;20255;-64
2022/07/31 04:59:21;;;;;;;28.07;8.40;;;20.60;99.90;;;;;;4991320;28;21008;-65
2022/07/31 05:01:48;;;;;;;27.23;7.70;;;20.70;99.90;;;;;;4992730;28;20476;-66
2022/07/31 05:04:14;;;;;;;17.17;7.70;;;20.70;99.90;;;;;;4992705;28;20451;-65
2022/07/31 05:06:48;;;;;;;27.97;8.77;;;20.70;99.90;;;;;;4991928;28;20427;-65
2022/07/31 05:09:19;;;;;;;22.83;8.03;;;20.60;99.90;;;;;;4973903;28;20448;-66
2022/07/31 05:11:47;;;;;;;25.67;7.77;;;20.70;99.90;;;;;;4991498;28;20431;-66
2022/07/31 05:14:13;;;;;;;24.67;7.30;;;20.70;99.90;;;;;;4991730;28;20435;-65
2022/07/31 05:16:39;;;;;;;31.77;7.77;;;20.70;99.90;;;;;;4987541;28;20432;-65
2022/07/31 05:19:06;;;;;;;16.03;7.93;;;21.10;99.90;;;;;;4991049;28;20444;-66
2022/07/31 05:21:32;;;;;;;39.30;9.00;;;21.70;99.90;;;;;;4991019;28;20212;-65
2022/07/31 05:23:59;;;;;;;33.07;8.83;;;21.80;99.90;;;;;;4992004;28;20423;-65
2022/07/31 05:26:26;;;;;;;26.07;7.40;;;21.80;99.90;;;;;;4985192;28;20252;-66
2022/07/31 05:28:54;;;;;;;9.67;6.20;;;21.90;99.90;;;;;;4991856;28;20435;-66
2022/07/31 05:31:20;;;;;;;7.40;6.70;;;22.40;99.90;;;;;;4989999;28;20425;-65
2022/07/31 05:33:47;;;;;;;8.70;6.33;;;22.70;99.90;;;;;;4988579;28;20424;-66
2022/07/31 05:36:14;;;;;;;10.40;5.97;;;23.00;99.90;;;;;;4991449;28;20424;-66
2022/07/31 05:38:40;;;;;;;33.23;9.00;;;22.90;99.90;;;;;;4991980;28;20439;-65
2022/07/31 05:41:06;;;;;;;38.63;10.00;;;22.80;99.90;;;;;;4990400;28;20486;-66
2022/07/31 05:43:33;;;;;;;15.57;6.70;;;22.70;99.90;;;;;;4988885;28;20416;-66
2022/07/31 05:45:58;;;;;;;25.33;7.47;;;22.50;99.90;;;;;;4991470;28;20177;-65
2022/07/31 05:48:24;;;;;;;19.23;7.73;;;22.80;99.90;;;;;;4988893;28;20964;-65
2022/07/31 05:50:51;;;;;;;20.27;8.40;;;22.70;99.90;;;;;;4990976;28;20247;-65
2022/07/31 05:53:19;;;;;;;27.37;9.30;;;22.40;99.90;;;;;;4990984;28;20304;-65
2022/07/31 05:55:46;;;;;;;28.00;7.80;;;22.20;99.90;;;;;;4991300;28;20435;-65
2022/07/31 05:58:13;;;;;;;20.00;7.30;;;22.10;99.90;;;;;;4989149;28;20431;-65
2022/07/31 06:00:39;;;;;;;17.30;7.10;;;22.20;99.90;;;;;;4990183;28;20431;-65
2022/07/31 06:03:05;;;;;;;16.40;6.60;;;22.60;99.90;;;;;;4991093;28;21061;-65
2022/07/31 06:05:31;;;;;;;17.90;7.00;;;22.70;99.90;;;;;;4991368;28;20578;-66
2022/07/31 06:07:58;;;;;;;26.57;8.00;;;22.80;99.90;;;;;;4990491;28;20688;-65
2022/07/31 06:10:24;;;;;;;16.73;7.60;;;22.70;99.90;;;;;;4990741;28;20424;-65
2022/07/31 06:12:50;;;;;;;15.97;7.90;;;22.90;99.90;;;;;;4991106;28;20522;-65
2022/07/31 06:15:16;;;;;;;16.13;8.73;;;23.00;99.90;;;;;;4990949;28;21247;-65
2022/07/31 06:17:42;;;;;;;20.03;8.47;;;23.00;99.90;;;;;;4990423;28;20192;-65
2022/07/31 06:20:09;;;;;;;35.27;7.97;;;23.10;99.90;;;;;;4987196;28;20459;-65
2022/07/31 06:22:35;;;;;;;20.53;7.37;;;23.40;99.90;;;;;;4988198;28;20470;-65
2022/07/31 06:25:02;;;;;;;47.53;10.27;;;23.50;99.90;;;;;;4986854;28;20432;-65
2022/07/31 06:27:27;;;;;;;29.10;7.97;;;23.60;99.90;;;;;;4988963;28;20467;-65
2022/07/31 06:29:55;;;;;;;47.43;10.37;;;24.00;99.90;;;;;;4990869;28;20949;-65
2022/07/31 06:32:21;;;;;;;30.30;8.23;;;24.00;99.90;;;;;;4988247;28;20185;-65
2022/07/31 06:34:46;;;;;;;36.03;9.50;;;23.90;99.90;;;;;;4990178;28;20505;-66
2022/07/31 06:37:12;;;;;;;24.67;7.83;;;24.10;99.90;;;;;;4989791;28;20181;-66
2022/07/31 06:39:38;;;;;;;13.13;6.97;;;24.50;99.90;;;;;;4990365;28;20201;-66
2022/07/31 06:42:04;;;;;;;39.50;9.30;;;24.60;99.90;;;;;;4990297;28;20192;-67
2022/07/31 06:44:31;;;;;;;15.60;7.13;;;24.30;99.90;;;;;;4988147;28;20785;-67
2022/07/31 06:46:57;;;;;;;11.87;5.80;;;23.90;99.90;;;;;;4980967;28;20185;-66
2022/07/31 06:49:23;;;;;;;16.07;6.30;;;23.60;99.90;;;;;;4970686;28;20452;-66
2022/07/31 06:51:49;;;;;;;8.17;5.30;;;23.60;99.90;;;;;;4989481;28;20264;-66
2022/07/31 06:54:14;;;;;;;12.80;5.50;;;23.60;99.90;;;;;;4989492;28;20352;-67
2022/07/31 06:56:40;;;;;;;26.07;7.70;;;23.60;99.90;;;;;;4990569;28;20181;-66
2022/07/31 06:59:06;;;;;;;17.33;5.50;;;23.70;99.90;;;;;;4989477;28;20201;-66
2022/07/31 07:01:32;;;;;;;40.97;8.93;;;23.70;99.90;;;;;;4990193;28;20236;-66
2022/07/31 07:03:58;;;;;;;42.77;7.80;;;23.60;99.90;;;;;;4990144;28;20428;-66
2022/07/31 07:06:25;;;;;;;15.60;8.10;;;23.60;99.90;;;;;;4986124;28;20424;-66
2022/07/31 07:08:51;;;;;;;15.77;6.13;;;23.50;99.90;;;;;;4988169;28;20492;-67
2022/07/31 07:11:18;;;;;;;27.33;7.20;;;23.30;99.90;;;;;;4985330;28;20490;-66
2022/07/31 07:13:44;;;;;;;11.80;5.40;;;23.30;99.90;;;;;;4984802;28;20428;-67
2022/07/31 07:16:10;;;;;;;6.57;5.73;;;23.40;99.90;;;;;;4984608;28;20425;-65
2022/07/31 07:18:36;;;;;;;6.93;5.97;;;23.30;99.90;;;;;;4979492;28;20443;-67
2022/07/31 07:21:03;;;;;;;18.30;6.80;;;23.20;99.90;;;;;;4980043;28;20456;-65
2022/07/31 07:23:29;;;;;;;15.40;5.90;;;23.30;99.90;;;;;;4983103;28;20432;-65
2022/07/31 07:25:55;;;;;;;13.07;5.50;;;23.30;99.90;;;;;;4979119;28;20420;-66
2022/07/31 07:28:21;;;;;;;17.90;5.80;;;23.40;99.90;;;;;;4983191;28;20291;-65
2022/07/31 07:30:47;;;;;;;24.40;6.60;;;23.40;99.90;;;;;;4987212;28;20182;-65
2022/07/31 07:33:13;;;;;;;30.67;6.83;;;23.60;99.90;;;;;;4989239;28;20427;-65
2022/07/31 07:35:38;;;;;;;8.90;4.97;;;23.60;99.90;;;;;;4990085;28;20248;-66
2022/07/31 07:38:04;;;;;;;13.83;5.13;;;23.40;99.90;;;;;;4985630;28;20263;-65
2022/07/31 07:40:30;;;;;;;25.77;5.50;;;23.90;99.90;;;;;;4980333;28;20177;-65
2022/07/31 07:42:56;;;;;;;16.80;5.10;;;24.30;99.90;;;;;;4979446;28;20205;-65
2022/07/31 07:45:23;;;;;;;19.70;5.47;;;24.50;99.90;;;;;;4985215;28;20442;-65
2022/07/31 07:47:49;;;;;;;20.43;5.57;;;24.70;99.90;;;;;;4982220;28;20172;-65
2022/07/31 07:50:15;;;;;;;38.63;7.00;;;24.80;99.90;;;;;;4982775;28;20471;-66
2022/07/31 07:52:41;;;;;;;30.20;5.87;;;25.00;99.90;;;;;;4979700;28;20425;-64
2022/07/31 07:55:08;;;;;;;19.17;4.97;;;25.10;99.90;;;;;;4977494;28;20526;-65
2022/07/31 07:57:35;;;;;;;30.23;5.80;;;25.20;99.90;;;;;;4982087;28;20424;-65
2022/07/31 08:00:05;;;;;;;23.13;6.13;;;25.20;99.90;;;;;;4977841;28;20454;-64
2022/07/31 08:02:31;;;;;;;30.43;6.33;;;25.10;99.90;;;;;;4982056;28;20879;-65
2022/07/31 08:04:57;;;;;;;13.07;5.40;;;25.20;99.90;;;;;;4980628;28;20558;-65
2022/07/31 08:07:28;;;;;;;31.03;6.33;;;25.20;99.90;;;;;;4978753;28;20176;-65
2022/07/31 08:09:54;;;;;;;18.77;4.80;;;25.20;99.90;;;;;;4983842;28;20314;-65
2022/07/31 08:12:20;;;;;;;14.60;4.90;;;25.00;99.90;;;;;;4980149;28;20974;-65
2022/07/31 08:14:46;;;;;;;25.10;5.60;;;25.00;99.90;;;;;;4983797;28;20517;-65
2022/07/31 08:17:12;;;;;;;26.60;6.43;;;24.90;99.90;;;;;;4981834;28;20181;-65
2022/07/31 08:19:37;;;;;;;32.20;6.60;;;24.80;99.90;;;;;;4988804;28;20219;-65
2022/07/31 08:22:03;;;;;;;35.43;7.43;;;24.90;99.90;;;;;;4985178;28;20211;-66
2022/07/31 08:24:29;;;;;;;31.10;6.30;;;24.80;99.90;;;;;;4991897;28;20180;-66
2022/07/31 08:29:39;;;;;;;10.40;5.73;;;25.00;99.90;;;;;;4984817;28;20219;-66
2022/07/31 08:32:05;;;;;;;6.00;4.40;;;25.00;99.90;;;;;;4985452;28;20752;-66
2022/07/31 08:34:31;;;;;;;4.07;3.33;;;25.00;99.90;;;;;;4983061;28;20177;-67
2022/07/31 08:36:57;;;;;;;11.80;4.87;;;24.90;99.90;;;;;;4983761;28;21295;-66
2022/07/31 08:39:23;;;;;;;20.30;4.70;;;25.00;99.90;;;;;;4983633;28;20193;-66
2022/07/31 08:41:48;;;;;;;7.97;3.67;;;25.00;99.90;;;;;;4983044;28;20296;-65
2022/07/31 08:44:14;;;;;;;23.73;5.90;;;25.10;99.90;;;;;;4987549;28;20209;-66
2022/07/31 08:46:41;;;;;;;14.80;4.40;;;25.30;99.90;;;;;;4984420;28;20169;-66
2022/07/31 08:49:08;;;;;;;5.30;3.53;;;25.40;99.90;;;;;;4982875;28;20479;-66
2022/07/31 08:51:37;;;;;;;18.83;4.83;;;25.60;99.90;;;;;;4993217;28;20181;-67
2022/07/31 08:54:11;;;;;;;12.57;4.53;;;25.80;99.90;;;;;;4994212;28;20451;-67
2022/07/31 08:56:37;;;;;;;3.97;3.57;;;25.90;99.90;;;;;;4987396;28;20416;-66
2022/07/31 08:59:04;;;;;;;14.57;4.13;;;25.80;99.90;;;;;;4981535;28;20450;-66
2022/07/31 09:01:33;;;;;;;5.13;3.40;;;25.80;99.90;;;;;;4967567;28;20526;-67
2022/07/31 09:04:00;;;;;;;11.93;4.10;;;25.90;99.90;;;;;;4988226;28;20854;-66
2022/07/31 09:06:26;;;;;;;12.33;5.50;;;25.70;99.90;;;;;;4984184;28;20430;-67
2022/07/31 09:08:55;;;;;;;3.70;3.30;;;25.60;99.90;;;;;;4983215;28;20448;-65
2022/07/31 09:11:27;;;;;;;4.53;3.50;;;25.80;99.90;;;;;;4982568;28;21012;-68
2022/07/31 09:14:01;;;;;;;18.00;5.17;;;25.80;99.90;;;;;;4985353;28;20510;-68
2022/07/31 09:16:28;;;;;;;3.47;3.17;;;25.90;99.90;;;;;;4987111;28;20440;-65
2022/07/31 09:19:13;;;;;;;3.67;3.33;;;25.70;99.90;;;;;;4983232;28;20443;-67
2022/07/31 09:21:44;;;;;;;5.00;3.80;;;25.30;99.90;;;;;;4966277;28;20451;-66
2022/07/31 09:24:13;;;;;;;5.57;3.27;;;25.40;99.90;;;;;;4977909;28;20404;-66
2022/07/31 09:26:43;;;;;;;3.90;3.50;;;25.30;99.90;;;;;;4979640;28;20443;-65
2022/07/31 09:29:18;;;;;;;8.43;3.43;;;25.10;99.90;;;;;;4950671;28;20435;-67
2022/07/31 09:31:47;;;;;;;5.20;2.90;;;25.10;99.90;;;;;;4982410;28;20419;-66
2022/07/31 09:34:25;;;;;;;8.20;3.50;;;25.30;98.70;;;;;;4979756;28;21186;-65
2022/07/31 09:36:52;;;;;;;7.30;3.30;;;25.30;98.20;;;;;;4984227;28;20465;-65
2022/07/31 09:39:17;;;;;;;3.77;3.10;;;25.40;99.90;;;;;;4967867;28;20428;-66
2022/07/31 09:41:53;;;;;;;7.40;3.10;;;25.30;94.30;;;;;;4981899;28;20192;-65
2022/07/31 09:44:19;;;;;;;25.90;5.87;;;25.30;92.00;;;;;;4980076;28;20426;-65
2022/07/31 09:46:47;;;;;;;3.47;3.17;;;25.70;91.10;;;;;;4974013;28;20422;-65
2022/07/31 09:49:16;;;;;;;6.77;3.40;;;25.50;90.10;;;;;;4978852;28;20432;-65
2022/07/31 09:51:52;;;;;;;3.40;3.10;;;25.80;87.60;;;;;;4976222;28;20435;-65
2022/07/31 09:54:22;;;;;;;3.50;3.20;;;26.30;85.80;;;;;;4980025;28;20419;-66
2022/07/31 09:56:49;;;;;;;5.47;4.33;;;26.60;83.10;;;;;;4958355;28;20435;-65
2022/07/31 09:59:16;;;;;;;8.10;3.20;;;27.00;77.00;;;;;;4976293;28;20443;-65
2022/07/31 10:01:52;;;;;;;11.90;3.73;;;26.80;72.60;;;;;;4973110;28;20871;-66
2022/07/31 10:04:22;;;;;;;7.03;3.63;;;26.90;69.50;;;;;;4977178;28;20427;-65
2022/07/31 10:06:53;;;;;;;11.17;3.90;;;27.20;66.60;;;;;;4973785;28;20420;-68
2022/07/31 10:09:23;;;;;;;5.67;3.33;;;27.20;62.90;;;;;;4983883;28;20584;-67
2022/07/31 10:11:52;;;;;;;13.00;3.23;;;27.40;59.50;;;;;;4983232;28;20423;-64
2022/07/31 10:14:29;;;;;;;3.80;3.40;;;27.60;55.30;;;;;;4988311;28;20455;-65
2022/07/31 10:17:03;;;;;;;9.33;3.23;;;27.80;52.10;;;;;;4971074;28;20946;-66
2022/07/31 10:19:35;;;;;;;3.77;2.90;;;28.20;50.40;;;;;;4972963;28;20443;-66
2022/07/31 10:22:04;;;;;;;5.20;2.50;;;28.50;47.60;;;;;;4970951;28;20501;-66
2022/07/31 10:24:35;;;;;;;11.73;3.80;;;28.20;44.10;;;;;;4981158;28;20455;-65
2022/07/31 10:27:01;;;;;;;5.10;2.50;;;27.40;41.90;;;;;;4973325;28;20424;-67
2022/07/31 10:29:28;;;;;;;2.80;2.40;;;27.70;39.50;;;;;;4968562;28;20471;-66
2022/07/31 10:31:55;;;;;;;8.90;3.47;;;28.00;38.20;;;;;;4963513;28;20499;-64
2022/07/31 10:34:21;;;;;;;7.93;2.70;;;28.10;36.20;;;;;;4985781;28;20815;-66
2022/07/31 10:36:57;;;;;;;3.10;2.80;;;27.70;34.00;;;;;;4981535;28;20889;-68
2022/07/31 10:39:59;;;;;;;4.43;2.47;;;26.80;32.10;;;;;;4971809;28;20431;-64
2022/07/31 10:42:36;;;;;;;3.30;2.33;;;26.80;30.50;;;;;;4920897;29;20465;-66
2022/07/31 10:45:07;;;;;;;18.00;4.60;;;27.50;30.60;;;;;;4959865;28;20416;-65
2022/07/31 10:47:37;;;;;;;3.20;2.13;;;27.70;29.70;;;;;;4980559;28;20759;-64
2022/07/31 10:50:04;;;;;;;11.23;3.50;;;27.90;27.60;;;;;;4980352;28;20455;-66
2022/07/31 10:52:33;;;;;;;10.10;3.30;;;28.20;26.50;;;;;;4973292;28;20423;-66
2022/07/31 10:55:24;;;;;;;7.03;2.30;;;28.40;24.90;;;;;;4981247;28;20412;-65
2022/07/31 10:57:50;;;;;;;11.53;3.23;;;28.60;23.20;;;;;;4980448;28;20479;-66
2022/07/31 11:00:19;;;;;;;7.93;2.53;;;28.60;21.40;;;;;;4978531;28;20432;-65
2022/07/31 11:02:46;;;;;;;7.10;3.43;;;28.70;19.70;;;;;;4964090;28;20467;-67
2022/07/31 11:05:21;;;;;;;8.83;2.80;;;28.70;17.30;;;;;;4980255;28;20412;-67
2022/07/31 11:08:10;;;;;;;11.20;2.70;;;28.70;15.40;;;;;;4961826;28;20974;-65
2022/07/31 11:10:38;;;;;;;4.33;2.20;;;28.40;13.40;;;;;;4982636;28;20431;-65
2022/07/31 11:13:06;;;;;;;3.60;1.87;;;28.30;11.10;;;;;;4970539;28;20831;-66
2022/07/31 11:15:36;;;;;;;6.23;2.67;;;28.40;9.80;;;;;;4984381;28;20423;-66
2022/07/31 11:18:21;;;;;;;6.97;2.50;;;28.30;9.40;;;;;;4956525;28;20417;-65
2022/07/31 11:21:02;;;;;;;7.10;2.10;;;28.10;8.90;;;;;;4984333;28;20515;-66
2022/07/31 11:23:30;;;;;;;16.10;3.20;;;27.70;8.20;;;;;;4974867;28;20499;-66
2022/07/31 11:26:08;;;;;;;4.13;1.77;;;26.90;8.00;;;;;;4970808;28;20907;-66
2022/07/31 11:28:37;;;;;;;2.47;1.97;;;27.00;9.00;;;;;;4961505;28;20439;-68
2022/07/31 11:31:08;;;;;;;4.13;2.10;;;26.90;8.70;;;;;;4984279;28;20426;-67
2022/07/31 11:33:43;;;;;;;6.97;2.50;;;26.60;8.70;;;;;;4985861;28;20438;-66
2022/07/31 11:36:19;;;;;;;7.20;2.50;;;26.90;10.20;;;;;;4960443;28;20815;-66
2022/07/31 11:38:51;;;;;;;4.03;2.10;;;27.60;10.20;;;;;;4983195;28;20486;-65
2022/07/31 11:41:21;;;;;;;4.83;2.37;;;27.70;9.90;;;;;;4961055;28;20979;-64
2022/07/31 11:43:56;;;;;;;8.30;2.37;;;28.00;9.90;;;;;;4974698;28;20420;-66
2022/07/31 11:46:36;;;;;;;9.13;2.80;;;28.20;9.90;;;;;;4987625;28;20477;-66
2022/07/31 11:49:04;;;;;;;9.33;2.63;;;28.40;9.90;;;;;;4988758;28;20526;-66
2022/07/31 11:51:30;;;;;;;4.70;2.07;;;28.10;9.50;;;;;;4984039;28;20428;-66
2022/07/31 11:53:56;;;;;;;19.30;3.60;;;27.80;9.70;;;;;;4977367;28;20421;-65
2022/07/31 11:56:24;;;;;;;7.17;2.73;;;27.50;9.80;;;;;;4958834;28;20797;-66
2022/07/31 11:58:55;;;;;;;5.03;2.40;;;27.00;9.40;;;;;;4976605;28;20192;-66
2022/07/31 12:01:28;;;;;;;4.20;2.60;;;27.60;10.80;;;;;;4959500;28;21043;-66
2022/07/31 12:03:59;;;;;;;9.63;2.63;;;27.80;11.00;;;;;;4967976;28;20470;-65
2022/07/31 12:06:30;;;;;;;20.77;2.80;;;27.40;10.70;;;;;;4980801;28;20427;-67
2022/07/31 12:09:02;;;;;;;6.30;2.70;;;27.70;10.90;;;;;;4963209;28;20463;-66
2022/07/31 12:11:28;;;;;;;5.90;2.97;;;27.80;10.70;;;;;;4985645;28;20433;-66
2022/07/31 12:13:54;;;;;;;9.90;3.67;;;27.30;10.60;;;;;;4976798;28;20423;-66
2022/07/31 12:16:21;;;;;;;4.70;2.20;;;27.60;11.20;;;;;;4984322;28;20184;-67
2022/07/31 12:18:57;;;;;;;2.93;2.27;;;27.30;11.40;;;;;;4986702;28;20449;-66
2022/07/31 12:21:36;;;;;;;2.33;1.93;;;27.00;11.40;;;;;;4982710;28;21017;-67
2022/07/31 12:24:13;;;;;;;2.80;2.10;;;27.20;10.90;;;;;;4971508;28;20533;-66
2022/07/31 12:26:53;;;;;;;3.60;2.50;;;27.40;11.80;;;;;;4949865;28;20420;-66
2022/07/31 12:29:19;;;;;;;3.30;2.43;;;27.50;11.40;;;;;;4975127;28;20435;-64
2022/07/31 12:31:45;;;;;;;5.83;2.97;;;26.60;11.10;;;;;;4982782;28;21208;-65
2022/07/31 12:34:34;;;;;;;6.97;3.00;;;26.90;12.40;;;;;;4967302;28;20495;-65
2022/07/31 12:37:05;;;;;;;11.07;2.97;;;27.40;12.90;;;;;;4981234;28;20428;-68
2022/07/31 12:39:50;;;;;;;3.37;2.57;;;27.80;13.20;;;;;;4987229;28;20971;-66
2022/07/31 12:42:26;;;;;;;4.20;2.20;;;27.80;13.00;;;;;;4984051;28;20460;-66
2022/07/31 12:44:54;;;;;;;5.90;2.97;;;27.90;13.40;;;;;;4987650;28;20412;-65
2022/07/31 12:47:26;;;;;;;15.40;4.40;;;28.20;12.90;;;;;;4976516;28;20416;-65
2022/07/31 12:49:53;;;;;;;22.50;4.37;;;28.30;12.90;;;;;;4977060;28;21100;-66
2022/07/31 12:52:22;;;;;;;2.30;2.10;;;28.30;12.80;;;;;;4973301;28;20432;-67